createdAt,value
2023-03-28T00:01:25.043Z,4.90
2023-03-28T00:03:46.225Z,6.93
2023-03-28T00:06:11.152Z,5.60
2023-03-28T00:08:32.330Z,5.90
2023-03-28T00:10:53.676Z,5.70
2023-03-28T00:13:20.068Z,5.37
2023-03-28T00:15:41.976Z,5.80
2023-03-28T00:18:03.274Z,5.83
2023-03-28T00:20:24.892Z,5.27
2023-03-28T00:22:46.081Z,6.10
2023-03-28T00:25:07.776Z,6.30
2023-03-28T00:27:28.878Z,5.77
2023-03-28T00:29:51.525Z,5.93
2023-03-28T00:32:12.424Z,6.20
2023-03-28T00:34:34.014Z,6.27
2023-03-28T00:36:55.224Z,5.03
2023-03-28T00:39:17.478Z,6.10
2023-03-28T00:41:40.258Z,5.23
2023-03-28T00:44:01.571Z,5.50
2023-03-28T00:46:26.386Z,5.87
2023-03-28T00:48:52.341Z,5.90
2023-03-28T00:51:14.838Z,5.77
2023-03-28T00:53:38.212Z,7.57
2023-03-28T00:56:01.761Z,5.63
2023-03-28T00:58:25.151Z,6.20
2023-03-28T01:00:47.385Z,5.67
2023-03-28T01:03:13.811Z,6.40
2023-03-28T01:05:36.220Z,5.53
2023-03-28T01:08:00.162Z,5.67
2023-03-28T01:10:22.329Z,5.37
2023-03-28T01:12:44.684Z,5.53
2023-03-28T01:15:06.135Z,6.00
2023-03-28T01:17:27.731Z,5.77
2023-03-28T01:20:01.961Z,6.13
2023-03-28T01:22:36.417Z,5.60
2023-03-28T01:25:21.587Z,6.23
2023-03-28T01:27:45.575Z,6.47
2023-03-28T01:30:25.314Z,6.50
2023-03-28T01:33:07.172Z,6.30
2023-03-28T01:35:51.937Z,6.30
2023-03-28T01:38:17.026Z,6.03
2023-03-28T01:40:44.463Z,6.67
2023-03-28T01:43:22.069Z,6.93
2023-03-28T01:45:50.246Z,7.33
2023-03-28T01:48:16.421Z,6.63
2023-03-28T01:50:42.688Z,8.20
2023-03-28T01:53:08.378Z,8.43
2023-03-28T01:55:42.237Z,6.23
2023-03-28T01:58:06.724Z,7.17
2023-03-28T02:00:31.941Z,6.73
2023-03-28T02:02:55.811Z,6.20
2023-03-28T02:05:19.442Z,7.27
2023-03-28T02:07:42.512Z,8.20
2023-03-28T02:10:05.804Z,7.87
2023-03-28T02:12:31.241Z,8.53
2023-03-28T02:14:53.457Z,7.90
2023-03-28T02:17:16.691Z,8.90
2023-03-28T02:19:38.969Z,8.80
2023-03-28T02:22:04.202Z,7.53
2023-03-28T02:24:25.869Z,7.60
2023-03-28T02:26:47.766Z,8.20
2023-03-28T02:29:10.927Z,7.23
2023-03-28T02:31:32.932Z,9.23
2023-03-28T02:33:54.724Z,9.07
2023-03-28T02:36:31.530Z,9.13
2023-03-28T02:38:57.222Z,9.53
2023-03-28T02:41:26.458Z,10.57
2023-03-28T02:44:00.716Z,10.50
2023-03-28T02:46:31.740Z,9.27
2023-03-28T02:49:06.516Z,10.57
2023-03-28T02:51:34.932Z,8.30
2023-03-28T02:53:59.795Z,10.90
2023-03-28T02:56:23.522Z,9.97
2023-03-28T02:58:48.761Z,9.73
2023-03-28T03:01:14.692Z,8.80
2023-03-28T03:03:37.523Z,10.03
2023-03-28T03:05:58.653Z,8.60
2023-03-28T03:08:20.257Z,9.57
2023-03-28T03:10:41.470Z,10.00
2023-03-28T03:13:02.689Z,8.80
2023-03-28T03:15:24.359Z,9.47
2023-03-28T03:17:47.545Z,9.90
2023-03-28T03:20:10.663Z,8.90
2023-03-28T03:22:31.890Z,14.00
2023-03-28T03:24:53.652Z,10.83
2023-03-28T03:27:14.746Z,10.87
2023-03-28T03:29:38.800Z,11.30
2023-03-28T03:32:00.752Z,9.63
2023-03-28T03:34:21.911Z,9.80
2023-03-28T03:36:45.025Z,9.40
2023-03-28T03:39:05.982Z,9.70
2023-03-28T03:41:27.323Z,10.07
2023-03-28T03:43:48.696Z,9.73
2023-03-28T03:46:09.695Z,9.80
2023-03-28T03:48:31.537Z,10.27
2023-03-28T03:50:54.301Z,10.47
2023-03-28T03:53:17.107Z,10.70
2023-03-28T03:55:39.366Z,10.40
2023-03-28T03:58:01.413Z,10.87
2023-03-28T04:00:23.017Z,9.63
2023-03-28T04:02:44.367Z,13.03
2023-03-28T04:05:05.844Z,10.87
2023-03-28T04:07:27.282Z,10.27
2023-03-28T04:09:52.418Z,9.93
2023-03-28T04:12:13.625Z,11.43
2023-03-28T04:14:34.836Z,10.50
2023-03-28T04:16:56.184Z,9.57
2023-03-28T04:19:18.329Z,9.33
2023-03-28T04:21:44.361Z,12.33
2023-03-28T04:24:06.226Z,11.07
2023-03-28T04:26:29.059Z,14.80
2023-03-28T04:28:49.992Z,12.93
2023-03-28T04:31:12.099Z,12.07
2023-03-28T04:33:34.205Z,11.50
2023-03-28T04:35:57.577Z,13.20
2023-03-28T04:38:20.223Z,12.23
2023-03-28T04:40:44.666Z,11.43
2023-03-28T04:43:07.389Z,12.03
2023-03-28T04:45:29.054Z,11.90
2023-03-28T04:47:50.546Z,14.13
2023-03-28T04:50:13.083Z,14.40
2023-03-28T04:52:35.138Z,14.13
2023-03-28T04:54:56.362Z,16.07
2023-03-28T04:57:17.703Z,16.03
2023-03-28T04:59:40.495Z,16.77
2023-03-28T05:02:01.654Z,14.93
2023-03-28T05:04:24.214Z,19.03
2023-03-28T05:06:46.345Z,15.10
2023-03-28T05:09:07.881Z,14.77
2023-03-28T05:11:29.350Z,15.63
2023-03-28T05:13:50.497Z,16.50
2023-03-28T05:16:13.322Z,13.70
2023-03-28T05:18:34.749Z,16.50
2023-03-28T05:20:55.869Z,14.00
2023-03-28T05:23:17.214Z,11.77
2023-03-28T05:25:38.492Z,11.57
2023-03-28T05:27:59.834Z,11.40
2023-03-28T05:30:21.094Z,15.47
2023-03-28T05:32:43.504Z,14.03
2023-03-28T05:35:05.410Z,12.90
2023-03-28T05:37:28.528Z,14.07
2023-03-28T05:39:49.868Z,17.30
2023-03-28T05:42:10.801Z,14.23
2023-03-28T05:44:32.117Z,14.87
2023-03-28T05:46:53.339Z,14.87
2023-03-28T05:49:16.127Z,14.23
2023-03-28T05:51:37.465Z,15.10
2023-03-28T05:53:58.645Z,13.93
2023-03-28T05:56:19.834Z,12.33
2023-03-28T05:58:41.660Z,12.00
2023-03-28T06:01:04.449Z,13.20
2023-03-28T06:03:25.979Z,13.40
2023-03-28T06:05:48.512Z,15.03
2023-03-28T06:08:10.207Z,12.77
2023-03-28T06:10:31.421Z,13.03
2023-03-28T06:12:52.863Z,13.33
2023-03-28T06:15:14.440Z,13.60
2023-03-28T06:17:35.559Z,12.20
2023-03-28T06:19:56.912Z,13.87
2023-03-28T06:22:20.065Z,13.00
2023-03-28T06:24:40.910Z,13.93
2023-03-28T06:27:02.293Z,13.77
2023-03-28T06:29:23.575Z,13.13
2023-03-28T06:31:45.077Z,12.97
2023-03-28T06:34:06.446Z,12.73
2023-03-28T06:36:28.009Z,12.53
2023-03-28T06:38:52.263Z,12.80
2023-03-28T06:41:13.918Z,14.20
2023-03-28T06:43:35.348Z,12.27
2023-03-28T06:45:56.493Z,13.77
2023-03-28T06:48:17.820Z,14.00
2023-03-28T06:50:39.280Z,15.17
2023-03-28T06:53:00.858Z,15.37
2023-03-28T06:55:23.866Z,16.60
2023-03-28T06:57:44.908Z,12.83
2023-03-28T07:00:07.236Z,12.67
2023-03-28T07:02:28.620Z,14.97
2023-03-28T07:04:50.034Z,11.87
2023-03-28T07:07:11.138Z,10.30
2023-03-28T07:09:32.354Z,9.47
2023-03-28T07:11:54.711Z,9.80
2023-03-28T07:14:15.760Z,14.27
2023-03-28T07:16:37.010Z,11.20
2023-03-28T07:18:58.257Z,12.80
2023-03-28T07:21:19.929Z,11.83
2023-03-28T07:23:41.526Z,7.87
2023-03-28T07:26:03.343Z,9.43
2023-03-28T07:28:25.751Z,9.67
2023-03-28T07:30:47.133Z,9.57
2023-03-28T07:33:18.085Z,8.57
2023-03-28T07:35:43.155Z,8.53
2023-03-28T07:38:04.498Z,8.97
2023-03-28T07:40:26.158Z,11.97
2023-03-28T07:42:49.155Z,9.37
2023-03-28T07:45:12.470Z,10.63
2023-03-28T07:47:33.711Z,10.47
2023-03-28T07:49:55.215Z,8.63
2023-03-28T07:52:16.307Z,7.17
2023-03-28T07:54:37.738Z,9.07
2023-03-28T07:56:59.049Z,7.90
2023-03-28T07:59:21.048Z,8.80
2023-03-28T08:01:44.441Z,8.13
2023-03-28T08:04:06.078Z,6.40
2023-03-28T08:06:32.439Z,8.63
2023-03-28T08:08:54.128Z,9.70
2023-03-28T08:11:15.450Z,7.30
2023-03-28T08:13:37.066Z,5.17
2023-03-28T08:15:58.285Z,11.90
2023-03-28T08:18:21.808Z,6.27
2023-03-28T08:20:43.134Z,7.60
2023-03-28T08:23:04.651Z,9.07
2023-03-28T08:25:25.984Z,7.73
2023-03-28T08:27:47.896Z,6.20
2023-03-28T08:30:10.635Z,9.03
2023-03-28T08:32:32.129Z,8.40
2023-03-28T08:34:55.507Z,6.03
2023-03-28T08:37:16.490Z,8.77
2023-03-28T08:39:41.063Z,6.40
2023-03-28T08:42:14.627Z,7.10
2023-03-28T08:44:42.206Z,8.10
2023-03-28T08:47:05.127Z,5.73
2023-03-28T08:49:26.430Z,7.63
2023-03-28T08:51:49.908Z,5.23
2023-03-28T08:54:14.056Z,8.37
2023-03-28T08:56:37.291Z,7.03
2023-03-28T08:59:05.365Z,7.07
2023-03-28T09:01:29.233Z,6.80
2023-03-28T09:03:51.079Z,6.57
2023-03-28T09:06:18.599Z,4.57
2023-03-28T09:08:52.991Z,6.50
2023-03-28T09:11:21.447Z,5.83
2023-03-28T09:13:46.348Z,6.10
2023-03-28T09:16:28.433Z,6.43
2023-03-28T09:19:03.770Z,7.87
2023-03-28T09:21:29.240Z,3.20
2023-03-28T09:24:10.089Z,4.93
2023-03-28T09:26:34.080Z,7.87
2023-03-28T09:28:58.150Z,7.13
2023-03-28T09:31:20.894Z,4.13
2023-03-28T09:33:45.252Z,4.60
2023-03-28T09:36:12.067Z,4.57
2023-03-28T09:38:35.809Z,3.53
2023-03-28T09:40:59.778Z,3.93
2023-03-28T09:43:26.672Z,3.40
2023-03-28T09:45:53.696Z,4.10
2023-03-28T09:48:19.835Z,5.37
2023-03-28T09:50:41.315Z,4.13
2023-03-28T09:53:02.605Z,2.87
2023-03-28T09:55:25.253Z,4.93
2023-03-28T09:58:05.006Z,3.73
2023-03-28T10:00:26.080Z,3.20
2023-03-28T10:02:52.896Z,4.43
2023-03-28T10:05:31.678Z,4.30
2023-03-28T10:07:52.773Z,3.63
2023-03-28T10:10:18.725Z,3.03
2023-03-28T10:12:41.952Z,2.63
2023-03-28T10:15:05.304Z,6.03
2023-03-28T10:17:29.697Z,3.87
2023-03-28T10:19:51.358Z,2.90
2023-03-28T10:22:14.314Z,4.27
2023-03-28T10:24:35.990Z,2.80
2023-03-28T10:26:58.853Z,3.77
2023-03-28T10:29:20.066Z,3.20
2023-03-28T10:31:47.983Z,3.17
2023-03-28T10:34:23.706Z,3.30
2023-03-28T10:36:45.321Z,3.37
2023-03-28T10:39:20.762Z,3.30
2023-03-28T10:41:52.628Z,4.67
2023-03-28T10:44:17.975Z,3.30
2023-03-28T10:46:41.180Z,2.50
2023-03-28T10:49:05.735Z,2.63
2023-03-28T10:51:27.507Z,2.67
2023-03-28T10:53:59.669Z,2.30
2023-03-28T10:56:25.906Z,8.00
2023-03-28T10:58:49.774Z,2.60
2023-03-28T11:01:17.699Z,5.90
2023-03-28T11:03:46.759Z,2.43
2023-03-28T11:06:11.383Z,2.40
2023-03-28T11:08:44.804Z,3.43
2023-03-28T11:11:12.172Z,3.07
2023-03-28T11:13:36.360Z,2.20
2023-03-28T11:15:59.513Z,3.83
2023-03-28T11:18:30.005Z,3.43
2023-03-28T11:20:55.264Z,2.80
2023-03-28T11:23:31.344Z,2.27
2023-03-28T11:25:56.292Z,3.43
2023-03-28T11:28:22.378Z,3.20
2023-03-28T11:30:45.214Z,2.57
2023-03-28T11:33:10.017Z,2.13
2023-03-28T11:35:33.040Z,2.83
2023-03-28T11:37:59.558Z,3.27
2023-03-28T11:40:26.323Z,3.00
2023-03-28T11:42:51.095Z,2.50
2023-03-28T11:45:26.154Z,3.30
2023-03-28T11:48:03.846Z,2.37
2023-03-28T11:50:28.400Z,3.60
2023-03-28T11:52:52.824Z,2.40
2023-03-28T11:55:16.679Z,3.23
2023-03-28T11:57:43.804Z,2.37
2023-03-28T12:00:07.325Z,2.83
2023-03-28T12:02:37.304Z,2.63
2023-03-28T12:05:00.498Z,2.50
2023-03-28T12:07:23.676Z,3.17
2023-03-28T12:09:51.790Z,3.27
2023-03-28T12:12:14.878Z,2.27
2023-03-28T12:14:41.564Z,3.80
2023-03-28T12:17:05.062Z,3.90
2023-03-28T12:19:31.582Z,3.17
2023-03-28T12:21:58.802Z,2.30
2023-03-28T12:24:24.809Z,2.90
2023-03-28T12:26:56.139Z,5.37
2023-03-28T12:29:18.951Z,2.43
2023-03-28T12:31:46.372Z,3.13
2023-03-28T12:34:12.144Z,2.40
2023-03-28T12:36:35.064Z,2.17
2023-03-28T12:38:59.583Z,2.77
2023-03-28T12:41:22.964Z,3.27
2023-03-28T12:43:47.039Z,2.53
2023-03-28T12:46:09.140Z,5.23
2023-03-28T12:48:34.428Z,3.33
2023-03-28T12:50:58.641Z,2.40
2023-03-28T12:53:23.854Z,2.83
2023-03-28T12:55:46.836Z,2.90
2023-03-28T12:58:13.691Z,2.20
2023-03-28T13:00:40.368Z,2.17
2023-03-28T13:03:12.013Z,2.57
2023-03-28T13:05:40.337Z,3.13
2023-03-28T13:08:04.250Z,3.10
2023-03-28T13:10:30.614Z,2.30
2023-03-28T13:12:57.858Z,4.17
2023-03-28T13:15:27.207Z,2.60
2023-03-28T13:17:49.288Z,3.00
2023-03-28T13:20:26.589Z,2.30
2023-03-28T13:22:53.628Z,2.60
2023-03-28T13:25:32.938Z,5.07
2023-03-28T13:27:55.046Z,3.00
2023-03-28T13:30:16.850Z,3.60
2023-03-28T13:32:43.455Z,2.23
2023-03-28T13:35:05.744Z,3.10
2023-03-28T13:37:37.066Z,2.33
2023-03-28T13:40:01.076Z,2.50
2023-03-28T13:42:30.161Z,2.30
2023-03-28T13:44:51.915Z,2.00
2023-03-28T13:47:17.128Z,2.70
2023-03-28T13:49:43.247Z,2.23
2023-03-28T13:52:08.435Z,3.07
2023-03-28T13:54:30.037Z,3.50
2023-03-28T13:56:53.403Z,3.63
2023-03-28T13:59:16.533Z,3.03
2023-03-28T14:01:43.167Z,2.80
2023-03-28T14:04:11.539Z,4.33
2023-03-28T14:06:32.683Z,3.87
2023-03-28T14:08:55.467Z,2.90
2023-03-28T14:11:18.412Z,2.30
2023-03-28T14:13:41.237Z,3.87
2023-03-28T14:16:02.496Z,13.13
2023-03-28T14:18:27.519Z,3.00
2023-03-28T14:20:48.628Z,2.57
2023-03-28T14:23:26.148Z,2.43
2023-03-28T14:25:47.474Z,2.57
2023-03-28T14:28:09.496Z,2.27
2023-03-28T14:30:32.471Z,2.70
2023-03-28T14:32:57.648Z,3.00
2023-03-28T14:35:20.168Z,3.93
2023-03-28T14:37:47.851Z,2.53
2023-03-28T14:40:28.440Z,2.53
2023-03-28T14:42:50.114Z,3.60
2023-03-28T14:45:14.101Z,2.60
2023-03-28T14:47:36.599Z,3.93
2023-03-28T14:49:58.296Z,4.53
2023-03-28T14:52:26.257Z,3.07
2023-03-28T14:54:48.436Z,5.80
2023-03-28T14:57:15.373Z,3.43
2023-03-28T14:59:40.856Z,2.70
2023-03-28T15:02:03.471Z,4.10
2023-03-28T15:04:27.514Z,2.40
2023-03-28T15:06:54.631Z,2.60
2023-03-28T15:09:23.502Z,3.93
2023-03-28T15:11:44.737Z,2.40
2023-03-28T15:14:08.541Z,3.67
2023-03-28T15:16:30.267Z,2.80
2023-03-28T15:18:54.479Z,3.97
2023-03-28T15:21:17.301Z,3.43
2023-03-28T15:23:40.939Z,2.53
2023-03-28T15:26:04.355Z,2.60
2023-03-28T15:28:27.656Z,2.80
2023-03-28T15:30:50.616Z,2.93
2023-03-28T15:33:14.753Z,3.67
2023-03-28T15:35:39.061Z,2.90
2023-03-28T15:38:07.608Z,2.33
2023-03-28T15:40:31.214Z,3.13
2023-03-28T15:42:52.919Z,2.80
2023-03-28T15:45:39.029Z,2.20
2023-03-28T15:48:01.031Z,2.87
2023-03-28T15:50:26.215Z,3.07
2023-03-28T15:52:47.449Z,2.27
2023-03-28T15:55:17.464Z,2.60
2023-03-28T15:57:38.573Z,2.33
2023-03-28T16:00:00.906Z,2.50
2023-03-28T16:02:31.332Z,3.53
2023-03-28T16:05:03.707Z,3.03
2023-03-28T16:07:25.076Z,3.47
2023-03-28T16:09:46.654Z,2.50
2023-03-28T16:12:11.073Z,2.50
2023-03-28T16:14:32.065Z,2.40
2023-03-28T16:16:56.946Z,3.73
2023-03-28T16:19:20.230Z,3.53
2023-03-28T16:21:41.650Z,2.60
2023-03-28T16:24:03.069Z,2.40
2023-03-28T16:26:24.521Z,2.73
2023-03-28T16:28:47.332Z,2.37
2023-03-28T16:31:08.522Z,2.40
2023-03-28T16:33:29.785Z,2.37
2023-03-28T16:35:50.747Z,3.10
2023-03-28T16:38:12.670Z,2.63
2023-03-28T16:40:33.691Z,2.30
2023-03-28T16:42:55.432Z,2.33
2023-03-28T16:45:18.220Z,2.43
2023-03-28T16:47:39.516Z,2.67
2023-03-28T16:50:00.589Z,3.67
2023-03-28T16:52:21.846Z,3.07
2023-03-28T16:54:44.166Z,3.17
2023-03-28T16:57:05.934Z,2.17
2023-03-28T16:59:27.161Z,2.20
2023-03-28T17:01:49.798Z,3.57
2023-03-28T17:04:11.109Z,3.00
2023-03-28T17:06:32.516Z,3.40
2023-03-28T17:08:54.496Z,2.60
2023-03-28T17:11:15.505Z,2.70
2023-03-28T17:13:36.903Z,2.30
2023-03-28T17:15:58.265Z,2.93
2023-03-28T17:18:20.861Z,2.63
2023-03-28T17:20:41.811Z,3.17
2023-03-28T17:23:03.892Z,2.60
2023-03-28T17:25:24.824Z,2.83
2023-03-28T17:27:46.360Z,2.80
2023-03-28T17:30:08.635Z,3.60
2023-03-28T17:32:30.334Z,2.83
2023-03-28T17:34:53.102Z,2.73
2023-03-28T17:37:14.711Z,3.63
2023-03-28T17:39:36.596Z,2.77
2023-03-28T17:41:57.768Z,5.03
2023-03-28T17:44:18.966Z,3.63
2023-03-28T17:46:41.385Z,3.53
2023-03-28T17:49:02.896Z,3.67
2023-03-28T17:51:25.462Z,2.80
2023-03-28T17:53:47.693Z,3.30
2023-03-28T17:56:09.681Z,4.03
2023-03-28T17:58:31.847Z,2.87
2023-03-28T18:00:53.167Z,3.67
2023-03-28T18:03:14.712Z,4.20
2023-03-28T18:05:35.899Z,4.00
2023-03-28T18:07:58.939Z,3.37
2023-03-28T18:10:20.220Z,6.80
2023-03-28T18:12:41.513Z,3.10
2023-03-28T18:15:02.667Z,25.10
2023-03-28T18:17:24.097Z,20.23
2023-03-28T18:19:45.171Z,6.50
2023-03-28T18:22:06.606Z,4.77
2023-03-28T18:24:29.566Z,3.93
2023-03-28T18:26:50.605Z,4.33
2023-03-28T18:29:11.897Z,3.73
2023-03-28T18:31:33.405Z,4.90
2023-03-28T18:33:55.200Z,3.90
2023-03-28T18:36:16.379Z,4.47
2023-03-28T18:38:38.365Z,7.00
2023-03-28T18:41:00.786Z,4.33
2023-03-28T18:43:22.351Z,4.00
2023-03-28T18:45:43.818Z,4.50
2023-03-28T18:48:06.192Z,3.77
2023-03-28T18:50:28.660Z,4.50
2023-03-28T18:52:49.622Z,4.37
2023-03-28T18:55:12.062Z,4.23
2023-03-28T18:57:35.002Z,3.53
2023-03-28T18:59:56.989Z,4.10
2023-03-28T19:02:17.981Z,3.80
2023-03-28T19:04:39.610Z,3.60
2023-03-28T19:07:00.536Z,4.87
2023-03-28T19:09:22.209Z,3.90
2023-03-28T19:11:43.426Z,4.07
2023-03-28T19:14:06.244Z,4.40
2023-03-28T19:16:27.613Z,3.80
2023-03-28T19:18:49.338Z,5.50
2023-03-28T19:21:11.659Z,5.90
2023-03-28T19:23:32.934Z,4.10
2023-03-28T19:25:54.272Z,5.00
2023-03-28T19:28:15.929Z,4.07
2023-03-28T19:30:40.291Z,4.47
2023-03-28T19:33:01.638Z,3.83
2023-03-28T19:35:22.849Z,4.47
2023-03-28T19:37:44.030Z,3.90
2023-03-28T19:40:08.985Z,4.37
2023-03-28T19:42:30.361Z,4.00
2023-03-28T19:44:51.446Z,4.07
2023-03-28T19:47:14.172Z,3.90
2023-03-28T19:49:35.592Z,4.00
2023-03-28T19:51:56.622Z,3.70
2023-03-28T19:54:17.743Z,4.30
2023-03-28T19:56:39.077Z,3.77
2023-03-28T19:59:00.561Z,3.87
2023-03-28T20:01:21.797Z,5.03
2023-03-28T20:03:44.265Z,4.87
2023-03-28T20:06:06.225Z,3.77
2023-03-28T20:08:27.780Z,3.23
2023-03-28T20:10:54.341Z,3.90
2023-03-28T20:13:16.323Z,3.83
2023-03-28T20:15:39.166Z,4.90
2023-03-28T20:18:01.410Z,3.63
2023-03-28T20:20:24.636Z,3.50
2023-03-28T20:22:45.978Z,3.77
2023-03-28T20:25:08.052Z,7.87
2023-03-28T20:27:32.058Z,4.43
2023-03-28T20:29:53.268Z,3.90
2023-03-28T20:32:14.922Z,9.47
2023-03-28T20:34:36.054Z,5.80
2023-03-28T20:36:58.926Z,4.63
2023-03-28T20:39:22.537Z,4.23
2023-03-28T20:41:45.486Z,3.90
2023-03-28T20:44:06.672Z,3.70
2023-03-28T20:46:28.369Z,4.83
2023-03-28T20:48:51.929Z,3.53
2023-03-28T20:51:16.289Z,3.33
2023-03-28T20:53:39.380Z,3.80
2023-03-28T20:56:01.666Z,4.60
2023-03-28T20:58:23.596Z,4.30
2023-03-28T21:00:46.235Z,4.57
2023-03-28T21:03:12.337Z,4.40
2023-03-28T21:05:33.996Z,5.00
2023-03-28T21:07:58.308Z,5.40
2023-03-28T21:10:20.745Z,5.43
2023-03-28T21:12:43.757Z,9.00
2023-03-28T21:15:08.452Z,9.97
2023-03-28T21:17:29.521Z,8.03
2023-03-28T21:19:50.662Z,7.93
2023-03-28T21:22:12.019Z,8.00
2023-03-28T21:24:33.814Z,6.10
2023-03-28T21:26:56.692Z,8.20
2023-03-28T21:29:18.170Z,6.60
2023-03-28T21:31:39.505Z,5.10
2023-03-28T21:34:01.574Z,4.33
2023-03-28T21:36:22.368Z,5.07
2023-03-28T21:38:44.445Z,3.50
2023-03-28T21:41:06.269Z,3.50
2023-03-28T21:43:32.137Z,3.10
2023-03-28T21:45:53.719Z,3.47
2023-03-28T21:48:15.679Z,4.00
2023-03-28T21:50:38.953Z,3.87
2023-03-28T21:53:00.260Z,5.00
2023-03-28T21:55:21.559Z,4.37
2023-03-28T21:57:42.683Z,4.90
2023-03-28T22:00:14.714Z,3.83
2023-03-28T22:02:36.153Z,5.07
2023-03-28T22:04:57.498Z,4.87
2023-03-28T22:07:18.943Z,4.70
2023-03-28T22:09:40.189Z,4.70
2023-03-28T22:12:03.927Z,4.90
2023-03-28T22:14:25.381Z,4.80
2023-03-28T22:16:47.860Z,4.10
2023-03-28T22:19:11.273Z,4.13
2023-03-28T22:21:32.561Z,5.73
2023-03-28T22:23:54.404Z,4.83
2023-03-28T22:26:15.799Z,4.27
2023-03-28T22:28:37.253Z,4.23
2023-03-28T22:30:58.844Z,4.33
2023-03-28T22:33:23.145Z,4.33
2023-03-28T22:35:44.196Z,4.37
2023-03-28T22:38:05.727Z,3.63
2023-03-28T22:40:27.591Z,4.33
2023-03-28T22:42:49.351Z,3.93
2023-03-28T22:45:10.804Z,4.10
2023-03-28T22:47:39.500Z,3.87
2023-03-28T22:50:04.958Z,4.20
2023-03-28T22:52:26.959Z,3.73
2023-03-28T22:54:48.429Z,4.80
2023-03-28T22:57:09.621Z,3.87
2023-03-28T22:59:31.448Z,6.03
2023-03-28T23:01:53.269Z,4.57
2023-03-28T23:04:14.699Z,6.07
2023-03-28T23:06:38.957Z,3.97
2023-03-28T23:09:00.378Z,4.57
2023-03-28T23:11:21.405Z,3.80
2023-03-28T23:13:42.862Z,3.40
2023-03-28T23:16:04.525Z,3.43
2023-03-28T23:18:25.601Z,4.20
2023-03-28T23:20:50.789Z,3.50
2023-03-28T23:23:15.256Z,3.27
2023-03-28T23:25:36.199Z,3.27
2023-03-28T23:27:57.513Z,3.40
2023-03-28T23:30:18.891Z,3.30
2023-03-28T23:32:40.505Z,3.47
2023-03-28T23:35:02.069Z,3.57
2023-03-28T23:37:26.086Z,3.60
2023-03-28T23:39:48.884Z,3.47
2023-03-28T23:42:09.930Z,3.47
2023-03-28T23:44:31.450Z,3.60
2023-03-28T23:46:53.140Z,3.60
2023-03-28T23:49:14.185Z,3.10
2023-03-28T23:51:35.661Z,4.60
2023-03-28T23:53:57.128Z,4.13
2023-03-28T23:56:20.094Z,3.40
2023-03-28T23:58:41.161Z,4.00
